Time;durP1;ratioP1;P1;durP2;ratioP2;P2;SDS_P1;SDS_P2;PMS_P1;PMS_P2;Temp;Humidity;BMP_temperature;BMP_pressure;BME280_temperature;BME280_humidity;BME280_pressure;Samples;Min_cycle;Max_cycle;Signal;HPM_P1;HPM_P2
2022/06/04 00:00:17;;;;;;;;;24.80;24.40;;;;;21.50;62.80;100902.75;2091962;28;47599;-60
2022/06/04 00:01:18;;;;;;;;;26.00;25.80;;;;;21.49;62.97;100909.13;2086417;28;47580;-60
2022/06/04 00:02:18;;;;;;;;;21.00;21.00;;;;;21.47;62.75;100910.16;2086415;28;47913;-60
2022/06/04 00:03:19;;;;;;;;;22.50;22.50;;;;;21.46;62.71;100911.97;2095774;28;46956;-60
2022/06/04 00:04:20;;;;;;;;;25.60;25.00;;;;;21.45;62.87;100921.06;2094434;28;47962;-60
2022/06/04 00:05:28;;;;;;;;;22.75;22.75;;;;;21.45;62.91;100921.06;2096026;28;48079;-59
2022/06/04 00:06:29;;;;;;;;;25.20;25.20;;;;;21.45;62.54;100926.44;2094062;28;46961;-59
2022/06/04 00:07:29;;;;;;;;;27.75;27.00;;;;;21.44;62.83;100925.59;2096461;28;47877;-60
2022/06/04 00:08:31;;;;;;;;;21.50;21.50;;;;;21.44;62.58;100924.72;2104602;28;48213;-60
2022/06/04 00:09:32;;;;;;;;;25.20;24.20;;;;;21.43;62.93;100921.16;2105594;27;47644;-60
2022/06/04 00:15:42;;;;;;;;;22.00;22.00;;;;;21.41;62.76;100914.13;2102969;27;47789;-60
2022/06/04 00:16:44;;;;;;;;;25.20;23.60;;;;;21.40;62.89;100915.97;2103617;27;47873;-60
2022/06/04 00:17:45;;;;;;;;;23.40;23.40;;;;;21.40;62.39;100915.09;2104795;27;48004;-60
2022/06/04 00:18:45;;;;;;;;;24.25;24.25;;;;;21.38;62.85;100914.31;2106783;27;47685;-60
2022/06/04 00:19:46;;;;;;;;;20.25;20.25;;;;;21.36;62.74;100910.88;2107149;27;47755;-60
2022/06/04 00:20:48;;;;;;;;;21.40;21.40;;;;;21.35;62.71;100917.22;2104678;28;47477;-60
2022/06/04 00:21:50;;;;;;;;;25.80;23.00;;;;;21.34;63.16;100908.25;2106974;27;47713;-60
2022/06/04 00:22:57;;;;;;;;;24.40;23.80;;;;;21.32;63.12;100915.56;2105742;27;48053;-60
2022/06/04 00:23:58;;;;;;;;;24.00;22.80;;;;;21.34;62.77;100916.38;2103381;28;47336;-60
2022/06/04 00:24:58;;;;;;;;;26.75;25.50;;;;;21.34;62.81;100915.47;2106995;27;47642;-60
2022/06/04 00:26:00;;;;;;;;;24.75;24.75;;;;;21.34;62.50;100921.75;2105746;27;48527;-60
2022/06/04 00:27:00;;;;;;;;;27.40;26.60;;;;;21.34;63.03;100915.47;2104773;27;47379;-60
2022/06/04 00:28:04;;;;;;;;;23.25;23.25;;;;;21.33;62.92;100916.44;2106841;27;47300;-61
2022/06/04 00:29:07;;;;;;;;;22.40;21.80;;;;;21.34;62.69;100913.66;2104923;27;47688;-60
2022/06/04 00:30:08;;;;;;;;;26.20;24.60;;;;;21.34;63.11;100913.66;2105936;27;47752;-59
2022/06/04 00:31:09;;;;;;;;;23.40;23.40;;;;;21.35;62.49;100911.81;2106759;27;47621;-60
2022/06/04 00:32:10;;;;;;;;;24.50;24.50;;;;;21.33;62.79;100911.91;2103692;28;48281;-60
2022/06/04 00:33:11;;;;;;;;;23.75;23.75;;;;;21.34;62.83;100913.66;2106799;27;47718;-61
2022/06/04 00:34:14;;;;;;;;;25.80;24.80;;;;;21.34;62.97;100916.38;2106804;27;48158;-60
2022/06/04 00:35:15;;;;;;;;;25.20;24.60;;;;;21.33;63.04;100917.28;2103075;28;48413;-60
2022/06/04 00:36:16;;;;;;;;;25.75;24.00;;;;;21.33;62.59;100916.44;2106649;27;47987;-60
2022/06/04 00:37:16;;;;;;;;;21.75;21.75;;;;;21.33;62.64;100916.44;2105909;27;47961;-61
2022/06/04 00:38:19;;;;;;;;;25.25;25.25;;;;;21.32;62.46;100920.97;2104933;27;47709;-62
2022/06/04 00:39:20;;;;;;;;;24.40;22.80;;;;;21.31;62.92;100916.53;2106927;27;47663;-60
2022/06/04 00:40:29;;;;;;;;;24.50;23.50;;;;;21.31;62.93;100919.22;2104504;27;47488;-61
2022/06/04 00:41:48;;;;;;;;;21.60;21.60;;;;;21.31;62.62;100908.44;2104720;27;47500;-60
2022/06/04 00:42:48;;;;;;;;;26.00;24.60;;;;;21.32;62.60;100909.31;2107637;27;48096;-60
2022/06/04 00:44:22;;;;;;;;;22.50;22.00;;;;;21.30;62.32;100914.81;2110101;27;47366;-60
2022/06/04 00:45:34;;;;;;;;;26.60;24.80;;;;;21.29;62.94;100910.38;2105843;27;47524;-61
2022/06/04 00:46:41;;;;;;;;;21.20;21.20;;;;;21.28;63.07;100900.53;2104377;28;48292;-61
2022/06/04 00:47:41;;;;;;;;;24.40;24.00;;;;;21.27;62.43;100901.50;2106407;27;47785;-61
2022/06/04 00:48:42;;;;;;;;;23.25;23.25;;;;;21.28;63.06;100903.25;2106290;27;47663;-61
2022/06/04 00:49:42;;;;;;;;;25.50;24.75;;;;;21.28;62.77;100902.38;2104388;28;47298;-60
2022/06/04 00:50:43;;;;;;;;;26.75;26.75;;;;;21.27;62.88;100890.72;2106358;27;47849;-60
2022/06/04 00:51:48;;;;;;;;;27.25;27.25;;;;;21.28;62.90;100896.97;2105121;27;47670;-59
2022/06/04 00:52:52;;;;;;;;;24.80;23.80;;;;;21.26;62.48;100894.38;2104724;27;47697;-59
2022/06/04 00:53:56;;;;;;;;;30.60;28.80;;;;;21.25;62.87;100892.66;2106025;27;47986;-61
2022/06/04 00:54:57;;;;;;;;;21.80;20.20;;;;;21.26;62.82;100891.69;2097492;27;47545;-60
2022/06/04 00:56:07;;;;;;;;;23.80;23.80;;;;;21.26;63.14;100882.72;2105144;27;48122;-60
2022/06/04 00:57:14;;;;;;;;;23.60;23.60;;;;;21.26;63.10;100885.41;2085140;28;47539;-60
2022/06/04 00:58:34;;;;;;;;;25.60;23.40;;;;;21.24;62.95;100885.47;2089085;27;47768;-59
2022/06/04 00:59:50;;;;;;;;;22.40;21.80;;;;;21.24;63.02;100879.22;2104393;28;47719;-59
2022/06/04 01:01:00;;;;;;;;;24.80;24.80;;;;;21.24;62.95;100887.31;2095808;28;48182;-59
2022/06/04 01:02:21;;;;;;;;;22.40;22.20;;;;;21.23;63.03;100877.47;2096139;28;48507;-60
2022/06/04 01:03:50;;;;;;;;;23.80;23.60;;;;;21.23;63.06;100875.66;2106036;27;47739;-60
2022/06/04 01:04:57;;;;;;;;;25.60;25.00;;;;;21.23;62.50;100878.34;2096588;28;48313;-60
2022/06/04 01:06:12;;;;;;;;;26.20;24.40;;;;;21.23;62.99;100878.34;2094479;28;47417;-60
2022/06/04 01:07:19;;;;;;;;;24.40;24.20;;;;;21.21;63.03;100876.69;2094529;28;48663;-60
2022/06/04 01:08:47;;;;;;;;;26.00;25.80;;;;;21.21;62.80;100876.69;2096814;28;47467;-60
2022/06/04 01:10:27;;;;;;;;;26.20;25.40;;;;;21.21;62.71;100882.09;2096719;28;47736;-60
2022/06/04 01:11:27;;;;;;;;;27.80;24.40;;;;;21.19;62.89;100876.78;2095029;28;48018;-60
2022/06/04 01:13:02;;;;;;;;;23.25;23.25;;;;;21.17;62.67;100879.59;2086402;28;47407;-61
2022/06/04 01:14:21;;;;;;;;;23.60;23.20;;;;;21.19;62.84;100871.38;2090713;28;47812;-60
2022/06/04 01:15:36;;;;;;;;;25.20;24.00;;;;;21.19;62.97;100870.53;2097580;28;47543;-61
2022/06/04 01:16:43;;;;;;;;;23.40;23.40;;;;;21.19;63.00;100868.69;2098731;28;47849;-60
2022/06/04 01:17:57;;;;;;;;;21.00;21.00;;;;;21.19;62.48;100870.53;2096153;28;47257;-60
2022/06/04 01:19:13;;;;;;;;;22.80;21.80;;;;;21.18;62.57;100866.97;2096440;28;48088;-61
2022/06/04 01:20:51;;;;;;;;;28.00;27.60;;;;;21.18;62.64;100869.66;2098371;28;47700;-60
2022/06/04 01:22:28;;;;;;;;;22.40;21.80;;;;;21.17;62.51;100867.91;2097755;28;47915;-59
2022/06/04 01:23:49;;;;;;;;;24.00;24.00;;;;;21.16;63.06;100860.78;2098040;28;47505;-60
2022/06/04 01:25:17;;;;;;;;;20.20;19.80;;;;;21.15;62.99;100856.38;2098457;28;48007;-61
2022/06/04 01:26:42;;;;;;;;;21.20;20.80;;;;;21.14;62.89;100860.91;2097826;28;48122;-61
2022/06/04 01:27:51;;;;;;;;;21.80;21.80;;;;;21.12;62.76;100851.16;2097738;28;47474;-61
2022/06/04 01:28:56;;;;;;;;;21.00;21.00;;;;;21.11;62.46;100844.91;2096106;28;48322;-61
2022/06/04 01:30:09;;;;;;;;;24.00;23.40;;;;;21.11;62.91;100849.44;2098235;28;47488;-61
2022/06/04 01:31:18;;;;;;;;;24.00;23.00;;;;;21.11;62.58;100841.34;2098256;28;47876;-61
2022/06/04 01:32:31;;;;;;;;;22.20;21.60;;;;;21.13;62.41;100842.09;2096451;28;47862;-61
2022/06/04 01:33:37;;;;;;;;;22.20;22.20;;;;;21.14;62.76;100846.53;2087824;28;47777;-61
2022/06/04 01:34:47;;;;;;;;;22.40;22.40;;;;;21.12;62.74;100843.94;2093812;28;47585;-61
2022/06/04 01:35:56;;;;;;;;;27.00;26.60;;;;;21.13;62.75;100847.50;2095049;28;47497;-61
2022/06/04 01:37:04;;;;;;;;;22.60;22.60;;;;;21.11;62.49;100844.03;2091015;28;47169;-61
2022/06/04 01:38:12;;;;;;;;;26.00;25.20;;;;;21.09;63.01;100846.84;2094836;28;47670;-60
2022/06/04 01:39:25;;;;;;;;;22.60;20.40;;;;;21.09;62.97;100844.13;2105551;28;47935;-59
2022/06/04 01:42:00;;;;;;;;;24.40;23.00;;;;;21.07;62.41;100837.94;2100181;28;47333;-60
2022/06/04 01:43:03;;;;;;;;;23.80;23.40;;;;;21.07;63.04;100835.25;2106719;27;48065;-60
2022/06/04 01:44:24;;;;;;;;;26.80;25.60;;;;;21.07;62.46;100842.47;2096738;28;47574;-61
2022/06/04 01:45:27;;;;;;;;;22.00;22.00;;;;;21.08;63.08;100838.81;2103535;28;48188;-60
2022/06/04 01:46:35;;;;;;;;;23.00;23.00;;;;;21.07;62.59;100840.66;2102371;28;47547;-60
2022/06/04 01:47:37;;;;;;;;;25.60;25.00;;;;;21.08;62.75;100841.50;2104644;28;47621;-60
2022/06/04 01:48:42;;;;;;;;;22.40;22.40;;;;;21.08;62.55;100849.59;2105393;28;47679;-61
2022/06/04 01:49:50;;;;;;;;;26.00;24.20;;;;;21.09;62.63;100854.06;2105388;28;47832;-60
2022/06/04 01:50:57;;;;;;;;;23.60;23.60;;;;;21.08;62.75;100855.00;2105518;28;47569;-60
2022/06/04 01:52:08;;;;;;;;;28.80;26.80;;;;;21.09;62.55;100854.94;2105628;28;45287;-61
2022/06/04 01:53:11;;;;;;;;;22.80;22.60;;;;;21.09;62.72;100854.94;2105306;28;47807;-60
2022/06/04 01:54:18;;;;;;;;;29.80;28.20;;;;;21.09;62.98;100856.75;2105336;27;48088;-60
2022/06/04 01:55:23;;;;;;;;;26.20;25.00;;;;;21.09;62.42;100854.06;2096798;28;48455;-60
2022/06/04 01:56:31;;;;;;;;;25.20;24.00;;;;;21.07;63.00;100848.75;2100909;28;47354;-60
2022/06/04 01:57:46;;;;;;;;;25.20;23.20;;;;;21.07;62.53;100845.19;2104539;28;47982;-60
2022/06/04 01:59:01;;;;;;;;;27.00;24.40;;;;;21.06;62.97;100849.72;2105102;28;47565;-59
2022/06/04 02:00:09;;;;;;;;;23.60;23.60;;;;;21.04;62.76;100846.25;2105200;28;47928;-60
2022/06/04 02:01:19;;;;;;;;;24.20;24.20;;;;;21.02;62.59;100842.78;2103947;28;47345;-59
2022/06/04 02:02:27;;;;;;;;;25.20;24.20;;;;;21.03;63.09;100835.56;2105301;28;47441;-60
2022/06/04 02:03:37;;;;;;;;;25.20;23.60;;;;;21.03;62.56;100840.94;2095147;28;47635;-60
2022/06/04 02:04:43;;;;;;;;;24.40;23.80;;;;;21.01;62.88;100838.34;2097910;28;47379;-61
2022/06/04 02:05:53;;;;;;;;;24.20;24.00;;;;;21.01;62.93;100829.38;2096085;28;47638;-61
2022/06/04 02:08:28;;;;;;;;;23.80;23.00;;;;;20.99;63.02;100834.88;2096734;28;48020;-60
2022/06/04 02:09:29;;;;;;;;;26.60;26.40;;;;;20.99;63.12;100834.03;2078851;28;47747;-60
2022/06/04 02:11:03;;;;;;;;;26.75;26.75;;;;;20.98;63.09;100840.38;2079233;28;47725;-60
2022/06/04 02:12:05;;;;;;;;;26.80;25.80;;;;;20.98;62.97;100837.69;2062677;28;45678;-61
2022/06/04 02:13:10;;;;;;;;;26.20;26.20;;;;;20.97;62.80;100833.25;2054249;28;48101;-61
2022/06/04 02:14:11;;;;;;;;;26.00;25.80;;;;;20.97;63.17;100834.13;2050639;28;47985;-61
2022/06/04 02:15:16;;;;;;;;;27.00;26.50;;;;;20.97;63.01;100841.34;2065071;28;48266;-58
2022/06/04 02:16:30;;;;;;;;;24.80;24.80;;;;;20.96;63.16;100839.59;2063712;28;48023;-61
2022/06/04 02:17:32;;;;;;;;;26.80;25.80;;;;;20.96;62.76;100839.59;2062489;28;47935;-60
2022/06/04 02:18:32;;;;;;;;;24.60;22.20;;;;;20.96;63.00;100845.88;2062710;28;47635;-60
2022/06/04 02:19:32;;;;;;;;;22.75;22.75;;;;;20.96;63.06;100844.97;2063877;28;47887;-60
2022/06/04 02:20:33;;;;;;;;;24.75;24.75;;;;;20.96;62.92;100839.59;2063323;28;47690;-60
2022/06/04 02:21:35;;;;;;;;;22.75;22.75;;;;;20.96;62.52;100843.19;2064426;28;48046;-61
2022/06/04 02:22:35;;;;;;;;;21.80;21.80;;;;;20.94;62.84;100839.69;2062751;28;47372;-61
2022/06/04 02:23:36;;;;;;;;;25.75;25.50;;;;;20.95;62.63;100836.03;2064374;28;47628;-62
2022/06/04 02:24:37;;;;;;;;;25.25;25.25;;;;;20.95;62.63;100838.72;2065041;28;48087;-61
2022/06/04 02:25:38;;;;;;;;;25.80;24.80;;;;;20.96;62.69;100837.78;2062805;28;47383;-59
2022/06/04 02:26:41;;;;;;;;;21.25;21.25;;;;;20.97;62.62;100834.13;2045513;28;47326;-59
2022/06/04 02:27:43;;;;;;;;;25.00;23.40;;;;;20.97;62.37;100852.13;2048951;28;45598;-61
2022/06/04 02:28:44;;;;;;;;;24.80;24.80;;;;;20.98;62.87;100852.03;2062856;28;48296;-61
2022/06/04 02:29:44;;;;;;;;;24.80;23.80;;;;;20.99;62.43;100850.22;2063919;28;47792;-61
2022/06/04 02:31:06;;;;;;;;;26.50;24.50;;;;;21.00;63.18;100854.63;2063675;28;47502;-60
2022/06/04 02:32:14;;;;;;;;;23.00;22.00;;;;;21.01;62.43;100848.28;2062504;28;48209;-60
2022/06/04 02:33:27;;;;;;;;;24.20;23.60;;;;;21.01;63.00;100842.88;2064525;28;47540;-60
2022/06/04 02:34:36;;;;;;;;;25.60;24.60;;;;;21.00;62.78;100839.31;2043353;28;46328;-60
2022/06/04 02:35:50;;;;;;;;;22.80;21.00;;;;;21.01;62.32;100843.75;2050969;28;47236;-60
2022/06/04 02:36:50;;;;;;;;;24.40;23.40;;;;;21.01;62.95;100849.13;2061926;28;47993;-59
2022/06/04 02:38:10;;;;;;;;;23.25;22.00;;;;;21.01;62.89;100832.09;2064711;28;47724;-59
2022/06/04 02:39:17;;;;;;;;;22.00;22.00;;;;;21.00;62.89;100831.22;2064655;28;47120;-60
2022/06/04 02:40:29;;;;;;;;;22.00;20.60;;;;;21.01;62.94;100824.00;2062515;28;47796;-60
2022/06/04 02:41:40;;;;;;;;;26.40;25.00;;;;;21.00;62.51;100816.88;2061688;28;47966;-59
2022/06/04 02:42:51;;;;;;;;;25.20;21.60;;;;;21.00;62.38;100817.72;2066350;28;47733;-59
2022/06/04 02:44:02;;;;;;;;;23.40;23.40;;;;;21.01;62.71;100818.59;2067370;28;47588;-59
2022/06/04 02:45:06;;;;;;;;;22.20;22.20;;;;;21.00;62.90;100817.72;2062680;28;47305;-60
2022/06/04 02:46:19;;;;;;;;;27.80;26.40;;;;;20.98;62.25;100819.66;2064668;28;47477;-60
2022/06/04 02:47:35;;;;;;;;;22.80;22.80;;;;;20.97;62.60;100817.94;2064943;28;47611;-59
2022/06/04 02:48:51;;;;;;;;;23.60;21.20;;;;;20.97;62.74;100819.75;2064261;28;47530;-60
2022/06/04 02:50:19;;;;;;;;;29.00;27.80;;;;;20.95;62.79;100827.06;2105104;28;47593;-60
2022/06/04 02:51:25;;;;;;;;;28.40;27.00;;;;;20.94;62.65;100830.72;2104993;28;48009;-60
2022/06/04 02:52:27;;;;;;;;;30.20;26.80;;;;;20.92;62.61;100825.44;2107568;27;47602;-60
2022/06/04 02:53:32;;;;;;;;;21.00;20.60;;;;;20.91;62.34;100836.31;2106776;27;47419;-60
2022/06/04 02:54:44;;;;;;;;;24.80;23.60;;;;;20.92;62.50;100832.66;2104995;28;47534;-60
2022/06/04 02:55:57;;;;;;;;;27.80;25.40;;;;;20.92;62.97;100829.97;2107382;27;48039;-61
2022/06/04 02:57:00;;;;;;;;;24.40;23.40;;;;;20.90;63.14;100830.06;2107654;27;48063;-60
2022/06/04 02:58:08;;;;;;;;;24.80;24.00;;;;;20.89;62.62;100828.31;2095614;28;48120;-60
2022/06/04 02:59:12;;;;;;;;;25.00;22.60;;;;;20.90;62.91;100829.19;2098534;28;48080;-58
2022/06/04 03:00:17;;;;;;;;;23.00;22.80;;;;;20.89;62.79;100831.03;2106777;27;47434;-59
2022/06/04 03:01:20;;;;;;;;;21.80;21.80;;;;;20.89;62.84;100833.72;2105588;27;45552;-58
2022/06/04 03:02:24;;;;;;;;;23.20;22.40;;;;;20.90;63.20;100832.75;2106531;27;47230;-58
2022/06/04 03:03:25;;;;;;;;;27.00;26.20;;;;;20.89;63.04;100822.94;2109637;27;47520;-59
2022/06/04 03:04:26;;;;;;;;;24.80;24.80;;;;;20.89;62.66;100819.38;2113231;27;48415;-59
2022/06/04 03:05:28;;;;;;;;;21.50;21.50;;;;;20.89;62.51;100819.38;2107542;27;47572;-59
2022/06/04 03:06:30;;;;;;;;;26.00;26.00;;;;;20.90;63.17;100818.41;2107687;27;47850;-59
2022/06/04 03:07:31;;;;;;;;;21.00;21.00;;;;;20.91;62.37;100815.59;2104705;28;47504;-60
2022/06/04 03:08:35;;;;;;;;;21.75;19.75;;;;;20.91;62.63;100815.59;2104767;27;47576;-60
2022/06/04 03:09:38;;;;;;;;;26.00;25.20;;;;;20.92;62.59;100814.63;2089316;28;46226;-58
2022/06/04 03:10:38;;;;;;;;;24.20;23.80;;;;;20.93;62.54;100812.81;2090421;27;48043;-60
2022/06/04 03:11:47;;;;;;;;;25.00;24.00;;;;;20.93;62.96;100812.81;2108125;27;47563;-60
2022/06/04 03:12:48;;;;;;;;;27.60;26.80;;;;;20.91;62.76;100815.59;2110829;27;47330;-59
2022/06/04 03:13:48;;;;;;;;;25.50;24.50;;;;;20.90;62.43;100819.28;2103592;27;47837;-60
2022/06/04 03:14:49;;;;;;;;;21.75;20.50;;;;;20.89;62.43;100809.44;2108590;27;47837;-59
2022/06/04 03:15:50;;;;;;;;;28.25;28.25;;;;;20.88;62.85;100813.09;2104841;28;47752;-60
2022/06/04 03:16:51;;;;;;;;;23.80;23.60;;;;;20.86;62.59;100812.34;2107080;27;47424;-59
2022/06/04 03:17:52;;;;;;;;;27.40;27.40;;;;;20.86;62.95;100807.81;2105648;27;48100;-59
2022/06/04 03:18:52;;;;;;;;;26.50;24.50;;;;;20.86;63.03;100813.22;2105880;27;47508;-60
2022/06/04 03:19:53;;;;;;;;;24.00;23.75;;;;;20.88;62.76;100809.53;2106747;27;47906;-59
2022/06/04 03:20:53;;;;;;;;;23.25;22.50;;;;;20.88;63.22;100813.09;2104993;28;47644;-59
2022/06/04 03:21:54;;;;;;;;;24.50;24.50;;;;;20.88;62.80;100807.72;2106869;27;47511;-59
2022/06/04 03:22:54;;;;;;;;;25.00;24.50;;;;;20.88;63.18;100809.53;2107310;27;47510;-59
2022/06/04 03:23:55;;;;;;;;;27.25;25.75;;;;;20.88;63.07;100809.53;2103879;28;48459;-59
2022/06/04 03:24:55;;;;;;;;;26.25;25.75;;;;;20.87;63.41;100808.69;2106900;27;47400;-58
2022/06/04 03:25:56;;;;;;;;;27.75;24.75;;;;;20.87;62.89;100811.38;2105898;27;47574;-59
2022/06/04 03:26:56;;;;;;;;;27.00;24.00;;;;;20.85;62.88;100800.69;2096219;28;47506;-59
2022/06/04 03:27:57;;;;;;;;;24.75;23.75;;;;;20.84;62.83;100800.78;2097431;28;47909;-59
2022/06/04 03:28:57;;;;;;;;;24.00;23.25;;;;;20.83;62.87;100797.22;2086560;28;46347;-61
2022/06/04 03:29:58;;;;;;;;;25.50;25.00;;;;;20.82;63.16;100795.47;2089104;28;48379;-59
2022/06/04 03:30:59;;;;;;;;;22.25;22.25;;;;;20.80;63.18;100785.75;2107190;27;47512;-60
2022/06/04 03:31:59;;;;;;;;;23.80;23.60;;;;;20.79;62.93;100786.72;2104579;28;46554;-60
2022/06/04 03:33:00;;;;;;;;;27.00;26.50;;;;;20.79;62.93;100792.97;2107217;27;47511;-60
2022/06/04 03:34:04;;;;;;;;;28.00;25.00;;;;;20.79;63.00;100792.97;2105498;27;47565;-59
2022/06/04 03:35:05;;;;;;;;;26.40;26.20;;;;;20.80;63.23;100792.00;2105093;27;47639;-61
2022/06/04 03:36:08;;;;;;;;;24.00;24.00;;;;;20.81;62.76;100788.34;2105982;27;47781;-61
2022/06/04 03:37:09;;;;;;;;;25.00;25.00;;;;;20.82;63.46;100792.75;2103925;28;48293;-61
2022/06/04 03:38:10;;;;;;;;;27.25;25.25;;;;;20.84;63.09;100795.41;2100833;27;47334;-61
2022/06/04 03:39:11;;;;;;;;;25.00;23.40;;;;;20.85;62.88;100794.44;2095873;28;47226;-61
2022/06/04 03:40:12;;;;;;;;;25.50;24.75;;;;;20.86;63.17;100788.06;2103242;28;47744;-61
2022/06/04 03:41:12;;;;;;;;;23.75;23.00;;;;;20.88;62.96;100798.75;2104626;28;47326;-61
2022/06/04 03:42:13;;;;;;;;;27.50;25.75;;;;;20.89;62.82;100797.78;2104023;28;47931;-61
2022/06/04 03:43:13;;;;;;;;;23.00;23.00;;;;;20.87;62.88;100795.19;2096501;28;47800;-61
2022/06/04 03:44:13;;;;;;;;;24.00;23.75;;;;;20.88;62.82;100793.38;2094807;28;47275;-62
2022/06/04 03:45:15;;;;;;;;;24.00;22.50;;;;;20.88;63.01;100791.53;2096158;28;48108;-62
2022/06/04 03:46:15;;;;;;;;;24.40;24.40;;;;;20.86;63.09;100785.38;2100258;28;47644;-62
2022/06/04 03:47:17;;;;;;;;;26.75;26.75;;;;;20.85;63.42;100783.63;2104600;28;47970;-61
2022/06/04 03:48:18;;;;;;;;;24.60;24.60;;;;;20.84;63.13;100785.47;2104550;28;48027;-61
2022/06/04 03:49:18;;;;;;;;;24.60;23.60;;;;;20.85;62.89;100780.94;2103865;28;47784;-62
2022/06/04 03:50:19;;;;;;;;;25.60;25.60;;;;;20.85;63.33;100787.19;2094841;28;47477;-61
2022/06/04 03:51:20;;;;;;;;;26.75;25.25;;;;;20.85;63.01;100784.50;2094984;28;47748;-61
2022/06/04 03:52:21;;;;;;;;;27.00;25.00;;;;;20.86;63.11;100790.75;2104459;28;47791;-61
2022/06/04 03:53:22;;;;;;;;;19.40;19.40;;;;;20.86;63.09;100790.75;2104871;28;45728;-61
2022/06/04 03:54:52;;;;;;;;;23.50;22.50;;;;;20.87;62.70;100789.78;2104617;28;47354;-61
2022/06/04 03:55:43;;;;;;;;;28.60;27.40;;;;;20.88;63.23;100796.06;2104098;28;47880;-61
2022/06/04 03:57:37;;;;;;;;;24.75;24.75;;;;;20.88;63.20;100794.22;2104773;28;47395;-61
2022/06/04 03:58:03;;;;;;;;;26.00;24.60;;;;;20.88;63.20;100806.84;2104521;28;47882;-61
2022/06/04 03:59:04;;;;;;;;;21.75;21.50;;;;;20.88;62.85;100818.50;2104335;28;48262;-62
2022/06/04 04:00:06;;;;;;;;;26.25;25.50;;;;;20.87;63.18;100816.78;2104429;28;47882;-62
2022/06/04 04:01:20;;;;;;;;;25.00;23.60;;;;;20.88;62.72;100823.03;2104611;28;47847;-60
2022/06/04 04:02:20;;;;;;;;;25.40;25.40;;;;;20.88;63.15;100832.00;2104328;27;47951;-59
2022/06/04 04:03:21;;;;;;;;;26.50;26.50;;;;;20.88;62.94;100825.72;2104606;28;47272;-60
2022/06/04 04:04:21;;;;;;;;;23.25;23.25;;;;;20.87;62.69;100830.25;2111183;27;47483;-59
2022/06/04 04:05:25;;;;;;;;;26.50;26.25;;;;;20.86;63.04;100834.78;2110762;27;47224;-60
2022/06/04 04:06:33;;;;;;;;;25.00;23.20;;;;;20.88;62.91;100833.81;2099968;28;47582;-60
2022/06/04 04:07:33;;;;;;;;;25.00;25.00;;;;;20.87;62.96;100832.97;2102732;28;47953;-57
2022/06/04 04:08:34;;;;;;;;;23.50;22.50;;;;;20.85;63.15;100822.28;2104328;28;47929;-60
2022/06/04 04:09:34;;;;;;;;;26.40;26.40;;;;;20.85;62.81;100830.38;2104255;28;47673;-59
2022/06/04 04:10:38;;;;;;;;;24.50;23.50;;;;;20.85;62.73;100835.75;2094715;28;47439;-60
2022/06/04 04:11:38;;;;;;;;;27.20;24.60;;;;;20.85;62.94;100834.88;2069782;28;47508;-60
2022/06/04 04:12:39;;;;;;;;;29.50;28.75;;;;;20.84;63.48;100841.25;2069958;28;48188;-60
2022/06/04 04:13:41;;;;;;;;;27.75;26.50;;;;;20.82;63.47;100844.00;2086198;28;47487;-59
2022/06/04 04:14:41;;;;;;;;;25.60;24.60;;;;;20.81;62.74;100853.06;2084203;28;47606;-59
2022/06/04 04:15:43;;;;;;;;;20.50;20.50;;;;;20.81;63.34;100860.28;2095741;28;45941;-58
2022/06/04 04:16:43;;;;;;;;;24.40;23.60;;;;;20.79;63.15;100857.69;2111576;27;47855;-58
2022/06/04 04:17:44;;;;;;;;;22.00;21.75;;;;;20.79;63.37;100862.22;2109966;27;47990;-59
2022/06/04 04:18:45;;;;;;;;;24.75;21.75;;;;;20.78;63.27;100863.19;2110206;27;47355;-60
2022/06/04 04:19:45;;;;;;;;;23.60;22.20;;;;;20.78;63.65;100850.56;2101238;27;47542;-59
2022/06/04 04:20:48;;;;;;;;;26.00;26.00;;;;;20.78;63.62;100852.41;2098886;27;47341;-59
2022/06/04 04:21:48;;;;;;;;;26.80;24.60;;;;;20.78;63.32;100853.28;2095379;28;47536;-59
2022/06/04 04:22:49;;;;;;;;;22.50;22.25;;;;;20.78;62.99;100853.28;2100041;27;47519;-59
2022/06/04 04:23:50;;;;;;;;;21.00;20.00;;;;;20.79;63.03;100859.53;2110512;27;47791;-60
2022/06/04 04:24:51;;;;;;;;;28.00;26.00;;;;;20.80;63.69;100866.66;2112238;27;47615;-60
2022/06/04 04:25:51;;;;;;;;;27.50;26.50;;;;;20.80;63.51;100869.34;2109936;27;47968;-60
2022/06/04 04:26:51;;;;;;;;;29.00;27.00;;;;;20.81;63.45;100871.09;2112406;27;47503;-59
2022/06/04 04:27:53;;;;;;;;;24.75;24.75;;;;;20.82;63.08;100872.81;2110394;27;47125;-61
2022/06/04 04:28:53;;;;;;;;;27.00;25.00;;;;;20.80;62.93;100885.53;2109933;27;47698;-61
2022/06/04 04:29:54;;;;;;;;;25.00;22.25;;;;;20.79;63.23;100890.06;2112836;27;47486;-61
2022/06/04 04:30:54;;;;;;;;;28.50;27.75;;;;;20.79;63.30;100898.16;2109793;27;48263;-60
2022/06/04 04:31:55;;;;;;;;;26.25;24.50;;;;;20.79;63.20;100898.16;2110265;27;47193;-60
2022/06/04 04:32:56;;;;;;;;;24.25;24.00;;;;;20.80;63.53;100904.41;2112713;27;47699;-60
2022/06/04 04:33:56;;;;;;;;;24.60;24.60;;;;;20.82;63.49;100910.59;2105783;27;47371;-61
2022/06/04 04:34:57;;;;;;;;;25.00;25.00;;;;;20.81;63.03;100901.63;2111946;27;47677;-60
2022/06/04 04:35:59;;;;;;;;;24.75;24.75;;;;;20.82;62.99;100895.25;2104014;27;47254;-61
2022/06/04 04:37:00;;;;;;;;;24.00;24.00;;;;;20.83;63.25;100897.03;2106164;27;47487;-60
2022/06/04 04:38:01;;;;;;;;;24.50;23.50;;;;;20.83;62.96;100888.03;2109468;27;47844;-60
2022/06/04 04:39:01;;;;;;;;;28.50;23.75;;;;;20.84;63.59;100890.66;2107892;27;46542;-60
2022/06/04 04:40:02;;;;;;;;;25.75;25.75;;;;;20.83;63.12;100885.34;2109885;27;47155;-60
2022/06/04 04:41:08;;;;;;;;;23.60;23.20;;;;;20.83;63.01;100894.34;2103836;28;47492;-61
2022/06/04 04:42:09;;;;;;;;;22.40;22.40;;;;;20.83;63.57;100899.72;2090359;28;46634;-61
2022/06/04 04:43:10;;;;;;;;;23.00;22.25;;;;;20.84;62.96;100906.84;2090025;28;47517;-61
2022/06/04 04:44:10;;;;;;;;;25.50;25.50;;;;;20.85;63.38;100918.50;2112114;27;47437;-61
2022/06/04 04:45:12;;;;;;;;;20.00;19.25;;;;;20.85;63.44;100918.50;2109664;27;48077;-61
2022/06/04 04:46:13;;;;;;;;;24.20;22.60;;;;;20.85;63.43;100919.38;2112454;27;47931;-61
2022/06/04 04:47:14;;;;;;;;;25.00;23.40;;;;;20.86;63.59;100914.84;2108147;27;47662;-61
2022/06/04 04:48:14;;;;;;;;;26.50;24.50;;;;;20.86;63.11;100906.75;2101161;27;47468;-61
2022/06/04 04:49:15;;;;;;;;;21.25;20.50;;;;;20.86;63.40;100901.38;2112459;27;47937;-61
2022/06/04 04:50:20;;;;;;;;;19.75;19.75;;;;;20.86;63.11;100887.88;2109991;27;47318;-62
2022/06/04 04:51:24;;;;;;;;;26.80;26.80;;;;;20.85;63.10;100892.41;2111505;27;48172;-60
2022/06/04 04:52:26;;;;;;;;;21.40;20.60;;;;;20.86;63.32;100906.75;2113929;27;46420;-61
2022/06/04 04:53:27;;;;;;;;;26.00;24.80;;;;;20.85;63.63;100915.81;2111590;27;47766;-60
2022/06/04 04:54:28;;;;;;;;;24.50;24.25;;;;;20.83;63.17;100923.09;2112028;27;47511;-61
2022/06/04 04:55:29;;;;;;;;;24.20;24.20;;;;;20.83;63.42;100937.50;2113988;27;46893;-61
2022/06/04 04:56:30;;;;;;;;;26.00;23.60;;;;;20.82;63.47;100935.72;2111768;27;47828;-61
2022/06/04 04:57:30;;;;;;;;;29.00;27.00;;;;;20.82;63.31;100933.03;2113780;27;47807;-62
2022/06/04 04:58:30;;;;;;;;;26.50;24.75;;;;;20.81;63.17;100931.28;2112412;27;47404;-61
2022/06/04 04:59:31;;;;;;;;;16.00;16.00;;;;;20.82;63.36;100934.84;2112099;27;47330;-61
2022/06/04 05:00:32;;;;;;;;;29.00;27.00;;;;;20.81;63.62;100933.13;2109077;27;47792;-60
2022/06/04 05:01:33;;;;;;;;;27.80;27.80;;;;;20.80;63.46;100932.25;2105421;28;47998;-59
2022/06/04 05:02:34;;;;;;;;;25.50;22.50;;;;;20.82;63.70;100934.84;2089292;28;47315;-62
2022/06/04 05:03:35;;;;;;;;;22.00;20.60;;;;;20.81;63.05;100934.00;2089802;28;45926;-61
2022/06/04 05:04:35;;;;;;;;;24.50;22.50;;;;;20.81;63.60;100920.50;2105792;28;48071;-59